createdAt,value
2018-08-16T00:00:47.690Z,18.37
2018-08-16T00:01:47.743Z,18.29
2018-08-16T00:03:40.757Z,18.18
2018-08-16T00:04:40.810Z,18.23
2018-08-16T00:06:33.807Z,18.23
2018-08-16T00:07:33.863Z,18.08
2018-08-16T00:09:26.860Z,18.11
2018-08-16T00:10:26.922Z,18.08
2018-08-16T00:12:19.931Z,18.03
2018-08-16T00:13:19.979Z,18.07
2018-08-16T00:15:12.975Z,18.11
2018-08-16T00:16:13.038Z,18.03
2018-08-16T00:18:06.037Z,18.07
2018-08-16T00:19:06.095Z,18.07
2018-08-16T00:20:59.142Z,18.04
2018-08-16T00:21:59.153Z,18.13
2018-08-16T00:23:52.148Z,18.11
2018-08-16T00:24:52.212Z,18.18
2018-08-16T00:26:45.211Z,18.10
2018-08-16T00:27:45.271Z,18.07
2018-08-16T00:29:38.267Z,18.08
2018-08-16T00:30:38.323Z,18.01
2018-08-16T00:32:31.322Z,18.01
2018-08-16T00:33:31.383Z,18.07
2018-08-16T00:35:24.878Z,18.07
2018-08-16T00:36:24.939Z,18.01
2018-08-16T00:38:17.939Z,18.00
2018-08-16T00:39:17.998Z,18.04
2018-08-16T00:41:10.987Z,18.11
2018-08-16T00:42:11.056Z,18.03
2018-08-16T00:44:04.052Z,18.13
2018-08-16T00:45:04.110Z,18.15
2018-08-16T00:46:57.106Z,18.04
2018-08-16T00:47:57.161Z,17.87
2018-08-16T00:49:50.165Z,18.08
2018-08-16T00:50:50.222Z,17.90
2018-08-16T00:52:43.218Z,18.05
2018-08-16T00:53:43.275Z,17.95
2018-08-16T00:55:36.269Z,17.87
2018-08-16T00:56:36.333Z,17.85
2018-08-16T00:58:29.331Z,17.80
2018-08-16T00:59:29.390Z,17.76
2018-08-16T01:01:22.382Z,17.64
2018-08-16T01:02:22.460Z,17.76
2018-08-16T01:04:15.448Z,17.68
2018-08-16T01:05:15.507Z,17.65
2018-08-16T01:07:08.503Z,17.63
2018-08-16T01:08:08.553Z,17.59
2018-08-16T01:10:01.564Z,17.64
2018-08-16T01:11:01.620Z,17.56
2018-08-16T01:12:54.645Z,17.52
2018-08-16T01:13:54.702Z,17.44
2018-08-16T01:15:47.702Z,17.59
2018-08-16T01:16:47.762Z,17.54
2018-08-16T01:18:40.760Z,17.52
2018-08-16T01:19:40.826Z,17.49
2018-08-16T01:21:33.808Z,17.60
2018-08-16T01:22:33.874Z,17.54
2018-08-16T01:24:26.915Z,17.49
2018-08-16T01:25:26.928Z,17.48
2018-08-16T01:27:19.931Z,17.34
2018-08-16T01:28:20.048Z,17.46
2018-08-16T01:30:12.989Z,17.42
2018-08-16T01:31:13.048Z,17.34
2018-08-16T01:33:06.051Z,17.31
2018-08-16T01:34:06.102Z,17.33
2018-08-16T01:35:59.090Z,17.34
2018-08-16T01:36:59.167Z,17.30
2018-08-16T01:38:52.173Z,17.27
2018-08-16T01:39:52.242Z,17.36
2018-08-16T01:41:45.212Z,17.31
2018-08-16T01:42:45.275Z,17.24
2018-08-16T01:44:38.279Z,17.22
2018-08-16T01:45:38.328Z,17.20
2018-08-16T01:47:31.327Z,17.22
2018-08-16T01:48:31.384Z,17.16
2018-08-16T01:50:24.393Z,17.14
2018-08-16T01:51:24.446Z,17.09
2018-08-16T01:53:17.482Z,17.23
2018-08-16T01:54:17.539Z,17.22
2018-08-16T01:56:10.539Z,17.14
2018-08-16T01:57:10.592Z,17.20
2018-08-16T01:59:03.590Z,17.16
2018-08-16T02:00:03.645Z,17.11
2018-08-16T02:01:57.145Z,17.05
2018-08-16T02:02:57.200Z,16.99
2018-08-16T02:04:50.194Z,16.97
2018-08-16T02:05:50.253Z,16.97
2018-08-16T02:07:43.250Z,17.01
2018-08-16T02:08:43.306Z,16.93
2018-08-16T02:10:36.311Z,17.08
2018-08-16T02:11:36.359Z,17.01
2018-08-16T02:13:29.360Z,17.14
2018-08-16T02:14:29.421Z,16.91
2018-08-16T02:16:22.414Z,16.93
2018-08-16T02:17:22.480Z,17.05
2018-08-16T02:19:15.544Z,17.06
2018-08-16T02:20:15.532Z,16.90
2018-08-16T02:22:08.522Z,17.01
2018-08-16T02:23:08.588Z,16.96
2018-08-16T02:25:01.593Z,16.99
2018-08-16T02:26:01.651Z,16.99
2018-08-16T02:27:54.648Z,17.02
2018-08-16T02:28:54.705Z,16.99
2018-08-16T02:30:47.692Z,16.89
2018-08-16T02:31:47.778Z,16.87
2018-08-16T02:33:40.898Z,16.84
2018-08-16T02:34:40.809Z,16.86
2018-08-16T02:36:33.798Z,16.79
2018-08-16T02:37:33.857Z,16.86
2018-08-16T02:39:26.878Z,16.79
2018-08-16T02:40:26.933Z,16.86
2018-08-16T02:42:19.919Z,16.76
2018-08-16T02:43:19.982Z,16.72
2018-08-16T02:45:12.987Z,16.71
2018-08-16T02:46:13.042Z,16.71
2018-08-16T02:48:06.044Z,16.71
2018-08-16T02:49:06.097Z,16.71
2018-08-16T02:50:59.210Z,16.71
2018-08-16T02:51:59.151Z,16.76
2018-08-16T02:53:52.152Z,16.72
2018-08-16T02:54:52.212Z,16.72
2018-08-16T02:56:45.198Z,16.61
2018-08-16T02:57:45.263Z,16.64
2018-08-16T02:59:38.260Z,16.76
2018-08-16T03:00:38.316Z,16.72
2018-08-16T03:02:31.309Z,16.74
2018-08-16T03:03:31.368Z,16.72
2018-08-16T03:05:24.370Z,16.72
2018-08-16T03:06:24.421Z,16.78
2018-08-16T03:08:17.421Z,16.79
2018-08-16T03:09:17.472Z,16.72
2018-08-16T03:11:10.463Z,16.64
2018-08-16T03:12:10.559Z,16.72
2018-08-16T03:14:03.520Z,16.61
2018-08-16T03:15:03.578Z,16.66
2018-08-16T03:16:56.576Z,16.66
2018-08-16T03:17:56.638Z,16.69
2018-08-16T03:19:49.632Z,16.66
2018-08-16T03:20:49.687Z,16.66
2018-08-16T03:22:42.677Z,16.69
2018-08-16T03:23:42.739Z,16.74
2018-08-16T03:25:35.738Z,16.78
2018-08-16T03:26:35.791Z,16.74
2018-08-16T03:28:28.822Z,16.74
2018-08-16T03:29:28.850Z,16.76
2018-08-16T03:31:21.861Z,16.76
2018-08-16T03:32:21.898Z,16.78
2018-08-16T03:34:14.919Z,16.84
2018-08-16T03:35:15.005Z,16.76
2018-08-16T03:37:07.976Z,16.89
2018-08-16T03:38:08.035Z,16.83
2018-08-16T03:40:01.038Z,16.84
2018-08-16T03:41:01.092Z,16.90
2018-08-16T03:42:54.084Z,16.91
2018-08-16T03:43:54.150Z,16.81
2018-08-16T03:45:47.146Z,16.86
2018-08-16T03:46:47.204Z,16.84
2018-08-16T03:48:40.199Z,16.84
2018-08-16T03:49:40.258Z,16.83
2018-08-16T03:51:33.254Z,16.78
2018-08-16T03:52:33.310Z,16.75
2018-08-16T03:54:26.306Z,16.74
2018-08-16T03:55:26.365Z,16.72
2018-08-16T03:57:19.351Z,16.75
2018-08-16T03:58:19.415Z,16.72
2018-08-16T04:00:12.414Z,16.74
2018-08-16T04:01:12.473Z,16.69
2018-08-16T04:03:05.468Z,16.65
2018-08-16T04:04:05.523Z,16.68
2018-08-16T04:05:58.520Z,16.68
2018-08-16T04:06:58.577Z,16.58
2018-08-16T04:08:51.566Z,16.64
2018-08-16T04:09:51.628Z,16.51
2018-08-16T04:11:44.634Z,16.61
2018-08-16T04:12:44.679Z,16.56
2018-08-16T04:14:37.681Z,16.69
2018-08-16T04:15:37.737Z,16.65
2018-08-16T04:17:30.726Z,16.65
2018-08-16T04:18:30.789Z,16.60
2018-08-16T04:20:23.789Z,16.65
2018-08-16T04:21:23.835Z,16.65
2018-08-16T04:23:16.834Z,16.71
2018-08-16T04:24:16.904Z,16.64
2018-08-16T04:26:09.899Z,16.81
2018-08-16T04:27:09.981Z,16.74
2018-08-16T04:29:03.003Z,16.74
2018-08-16T04:30:03.008Z,16.68
2018-08-16T04:31:56.006Z,16.65
2018-08-16T04:32:56.063Z,16.64
2018-08-16T04:34:49.573Z,16.60
2018-08-16T04:35:49.621Z,16.60
2018-08-16T04:37:42.618Z,16.64
2018-08-16T04:38:42.676Z,16.54
2018-08-16T04:40:35.682Z,16.60
2018-08-16T04:41:35.761Z,16.49
2018-08-16T04:43:28.753Z,16.57
2018-08-16T04:44:28.802Z,16.53
2018-08-16T04:46:21.796Z,16.58
2018-08-16T04:47:21.853Z,16.58
2018-08-16T04:49:14.840Z,16.60
2018-08-16T04:50:14.910Z,16.72
2018-08-16T04:52:07.904Z,16.76
2018-08-16T04:53:07.963Z,16.69
2018-08-16T04:55:00.950Z,16.75
2018-08-16T04:56:01.015Z,16.72
2018-08-16T04:57:54.012Z,16.74
2018-08-16T04:58:54.076Z,16.81
2018-08-16T05:00:47.062Z,16.78
2018-08-16T05:01:47.120Z,16.87
2018-08-16T05:03:40.120Z,16.99
2018-08-16T05:04:40.173Z,16.94
2018-08-16T05:06:33.168Z,16.96
2018-08-16T05:07:33.230Z,17.04
2018-08-16T05:09:26.226Z,17.11
2018-08-16T05:10:26.292Z,17.11
2018-08-16T05:12:19.295Z,17.11
2018-08-16T05:13:19.456Z,17.14
2018-08-16T05:15:12.510Z,17.16
2018-08-16T05:16:12.469Z,17.16
2018-08-16T05:18:05.477Z,17.24
2018-08-16T05:19:05.584Z,17.27
2018-08-16T05:20:58.708Z,17.24
2018-08-16T05:21:58.581Z,17.31
2018-08-16T05:23:52.226Z,17.27
2018-08-16T05:24:51.753Z,17.41
2018-08-16T05:26:44.723Z,17.42
2018-08-16T05:27:44.783Z,17.42
2018-08-16T05:29:38.039Z,17.41
2018-08-16T05:30:37.989Z,17.48
2018-08-16T05:32:31.036Z,17.60
2018-08-16T05:33:31.091Z,17.59
2018-08-16T05:35:24.593Z,17.60
2018-08-16T05:36:24.652Z,17.65
2018-08-16T05:38:17.649Z,17.76
2018-08-16T05:39:17.706Z,17.76
2018-08-16T05:41:10.701Z,17.82
2018-08-16T05:42:10.769Z,17.83
2018-08-16T05:44:03.763Z,17.94
2018-08-16T05:45:03.824Z,18.03
2018-08-16T05:46:56.812Z,18.29
2018-08-16T05:47:56.874Z,18.31
2018-08-16T05:49:49.873Z,18.81
2018-08-16T05:50:49.940Z,18.80
2018-08-16T05:52:42.928Z,18.88
2018-08-16T05:53:42.984Z,19.07
2018-08-16T05:55:35.990Z,19.11
2018-08-16T05:56:36.047Z,19.18
2018-08-16T05:58:29.042Z,19.24
2018-08-16T05:59:29.128Z,19.18
2018-08-16T06:01:22.092Z,19.27
2018-08-16T06:02:22.155Z,19.31
2018-08-16T06:04:15.160Z,19.30
2018-08-16T06:05:15.218Z,19.22
2018-08-16T06:07:08.212Z,19.31
2018-08-16T06:08:08.272Z,19.48
2018-08-16T06:10:01.274Z,19.40
2018-08-16T06:11:01.341Z,19.49
2018-08-16T06:12:54.328Z,19.39
2018-08-16T06:13:54.386Z,19.44
2018-08-16T06:15:47.377Z,19.49
2018-08-16T06:16:47.442Z,19.54
2018-08-16T06:18:40.444Z,19.55
2018-08-16T06:19:40.502Z,19.64
2018-08-16T06:21:33.489Z,19.59
2018-08-16T06:22:33.569Z,19.73
2018-08-16T06:24:26.562Z,19.76
2018-08-16T06:25:26.619Z,19.74
2018-08-16T06:27:19.633Z,19.89
2018-08-16T06:28:19.672Z,19.85
2018-08-16T06:30:12.674Z,19.91
2018-08-16T06:31:12.831Z,19.85
2018-08-16T06:33:05.728Z,19.86
2018-08-16T06:34:05.791Z,19.82
2018-08-16T06:35:58.793Z,19.82
2018-08-16T06:36:58.849Z,19.91
2018-08-16T06:38:51.852Z,19.92
2018-08-16T06:39:51.907Z,19.92
2018-08-16T06:41:44.903Z,20.02
2018-08-16T06:42:44.966Z,20.09
2018-08-16T06:44:37.958Z,20.11
2018-08-16T06:45:38.020Z,20.19
2018-08-16T06:47:31.014Z,20.26
2018-08-16T06:48:31.072Z,20.29
2018-08-16T06:50:24.077Z,20.34
2018-08-16T06:51:24.134Z,20.32
2018-08-16T06:53:17.136Z,20.43
2018-08-16T06:54:17.195Z,20.56
2018-08-16T06:56:10.190Z,20.65
2018-08-16T06:57:10.249Z,20.70
2018-08-16T06:59:03.244Z,20.77
2018-08-16T07:00:03.304Z,20.77
2018-08-16T07:01:56.293Z,20.78
2018-08-16T07:02:56.358Z,20.77
2018-08-16T07:04:49.392Z,20.65
2018-08-16T07:05:49.415Z,20.80
2018-08-16T07:07:42.424Z,20.92
2018-08-16T07:08:42.499Z,20.99
2018-08-16T07:10:35.509Z,20.95
2018-08-16T07:11:35.547Z,21.03
2018-08-16T07:13:28.552Z,21.00
2018-08-16T07:14:28.613Z,21.03
2018-08-16T07:16:21.613Z,20.95
2018-08-16T07:17:21.677Z,20.96
2018-08-16T07:19:14.678Z,21.06
2018-08-16T07:20:14.734Z,21.18
2018-08-16T07:22:07.739Z,21.36
2018-08-16T07:23:07.801Z,21.50
2018-08-16T07:25:00.806Z,21.57
2018-08-16T07:26:00.858Z,21.67
2018-08-16T07:27:53.849Z,21.80
2018-08-16T07:28:53.916Z,21.91
2018-08-16T07:30:46.918Z,22.13
2018-08-16T07:31:46.971Z,22.11
2018-08-16T07:33:39.975Z,22.33
2018-08-16T07:34:40.031Z,22.47
2018-08-16T07:36:33.037Z,22.68
2018-08-16T07:37:33.096Z,22.72
2018-08-16T07:39:26.110Z,22.80
2018-08-16T07:40:26.162Z,22.65
2018-08-16T07:42:19.182Z,22.62
2018-08-16T07:43:19.230Z,22.57
2018-08-16T07:45:12.230Z,22.43
2018-08-16T07:46:12.422Z,22.39
2018-08-16T07:48:05.287Z,22.54
2018-08-16T07:49:05.355Z,22.57
2018-08-16T07:50:58.360Z,22.69
2018-08-16T07:51:58.487Z,22.76
2018-08-16T07:53:51.417Z,22.98
2018-08-16T07:54:51.477Z,23.17
2018-08-16T07:56:44.469Z,23.51
2018-08-16T07:57:44.535Z,23.66
2018-08-16T07:59:37.579Z,23.65
2018-08-16T08:00:37.644Z,23.68
2018-08-16T08:02:30.605Z,23.78
2018-08-16T08:03:30.670Z,24.08
2018-08-16T08:05:23.673Z,24.58
2018-08-16T08:06:23.730Z,24.65
2018-08-16T08:08:16.742Z,24.93
2018-08-16T08:09:16.873Z,25.21
2018-08-16T08:11:09.801Z,25.70
2018-08-16T08:12:09.867Z,26.07
2018-08-16T08:14:02.866Z,27.05
2018-08-16T08:15:02.928Z,27.37
2018-08-16T08:16:55.931Z,27.90
2018-08-16T08:17:55.996Z,28.01
2018-08-16T08:19:49.009Z,28.26
2018-08-16T08:20:49.070Z,28.66
2018-08-16T08:22:42.094Z,27.89
2018-08-16T08:23:42.161Z,27.83
2018-08-16T08:25:35.266Z,27.71
2018-08-16T08:26:35.241Z,27.71
2018-08-16T08:28:28.239Z,27.71
2018-08-16T08:29:28.311Z,27.36
2018-08-16T08:31:21.316Z,27.26
2018-08-16T08:32:21.381Z,27.37
2018-08-16T08:34:14.408Z,27.49
2018-08-16T08:35:14.460Z,27.48
2018-08-16T08:37:07.468Z,27.21
2018-08-16T08:38:07.546Z,27.07
2018-08-16T08:40:00.547Z,27.12
2018-08-16T08:41:00.611Z,27.42
2018-08-16T08:42:53.617Z,26.81
2018-08-16T08:43:53.680Z,26.90
2018-08-16T08:45:46.688Z,26.88
2018-08-16T08:46:46.752Z,27.37
2018-08-16T08:48:39.756Z,28.07
2018-08-16T08:49:39.822Z,28.12
2018-08-16T08:51:32.837Z,27.48
2018-08-16T08:52:32.898Z,27.64
2018-08-16T08:54:25.907Z,27.92
2018-08-16T08:55:25.972Z,29.10
2018-08-16T08:57:18.978Z,29.02
2018-08-16T08:58:19.046Z,28.48
2018-08-16T09:00:12.058Z,28.60
2018-08-16T09:01:12.122Z,27.90
2018-08-16T09:03:05.128Z,26.99
2018-08-16T09:04:05.202Z,27.80
2018-08-16T09:05:58.213Z,28.23
2018-08-16T09:06:58.286Z,27.63
2018-08-16T09:08:51.294Z,27.27
2018-08-16T09:09:51.376Z,27.22
2018-08-16T09:11:44.399Z,27.86
2018-08-16T09:12:44.444Z,27.68
2018-08-16T09:14:37.451Z,28.63
2018-08-16T09:15:37.519Z,28.82
2018-08-16T09:17:30.531Z,29.98
2018-08-16T09:18:30.593Z,29.04
2018-08-16T09:20:23.615Z,27.86
2018-08-16T09:21:23.689Z,27.64
2018-08-16T09:23:16.706Z,27.54
2018-08-16T09:24:16.772Z,27.82
2018-08-16T09:26:09.782Z,28.35
2018-08-16T09:27:09.849Z,28.11
2018-08-16T09:29:02.852Z,28.08
2018-08-16T09:30:02.920Z,27.96
2018-08-16T09:31:55.946Z,27.71
2018-08-16T09:32:55.997Z,27.51
2018-08-16T09:34:49.513Z,27.40
2018-08-16T09:35:49.578Z,27.26
2018-08-16T09:37:42.590Z,27.00
2018-08-16T09:38:42.655Z,26.99
2018-08-16T09:40:35.661Z,26.63
2018-08-16T09:41:35.730Z,26.63
2018-08-16T09:43:28.744Z,26.77
2018-08-16T09:44:28.803Z,26.92
2018-08-16T09:46:21.815Z,26.95
2018-08-16T09:47:21.885Z,27.00
2018-08-16T09:49:14.895Z,26.89
2018-08-16T09:50:14.959Z,27.05
2018-08-16T09:52:07.973Z,27.10
2018-08-16T09:53:08.029Z,27.00
2018-08-16T09:55:01.050Z,26.97
2018-08-16T09:56:01.103Z,26.99
2018-08-16T09:57:54.114Z,27.15
2018-08-16T09:58:54.176Z,27.22
2018-08-16T10:00:47.184Z,27.08
2018-08-16T10:01:47.268Z,26.90
2018-08-16T10:03:40.257Z,27.17
2018-08-16T10:04:40.323Z,27.27
2018-08-16T10:06:33.317Z,27.12
2018-08-16T10:07:33.393Z,27.17
2018-08-16T10:09:26.399Z,26.97
2018-08-16T10:10:26.476Z,27.05
2018-08-16T10:12:19.503Z,27.22
2018-08-16T10:13:19.552Z,27.25
2018-08-16T10:15:12.568Z,27.30
2018-08-16T10:16:12.633Z,27.21
2018-08-16T10:18:05.638Z,27.22
2018-08-16T10:19:05.702Z,27.32
2018-08-16T10:20:58.753Z,27.40
2018-08-16T10:21:58.764Z,26.99
2018-08-16T10:23:51.799Z,26.85
2018-08-16T10:24:51.861Z,26.89
2018-08-16T10:26:44.865Z,26.88
2018-08-16T10:27:44.930Z,26.93
2018-08-16T10:29:37.948Z,26.97
2018-08-16T10:30:38.020Z,26.99
2018-08-16T10:32:31.017Z,27.15
2018-08-16T10:33:31.085Z,27.05
2018-08-16T10:35:24.599Z,26.93
2018-08-16T10:36:24.676Z,26.90
2018-08-16T10:38:17.670Z,26.90
2018-08-16T10:39:17.736Z,26.84
2018-08-16T10:41:10.734Z,26.85
2018-08-16T10:42:10.802Z,26.85
2018-08-16T10:44:03.810Z,26.92
2018-08-16T10:45:03.871Z,26.97
2018-08-16T10:46:56.889Z,27.10
2018-08-16T10:47:56.950Z,27.14
2018-08-16T10:49:49.947Z,26.99
2018-08-16T10:50:50.007Z,26.92
2018-08-16T10:52:43.011Z,26.88
2018-08-16T10:53:43.081Z,26.88
2018-08-16T10:55:36.095Z,26.89
2018-08-16T10:56:36.157Z,26.88
2018-08-16T10:58:29.164Z,26.90
2018-08-16T10:59:29.226Z,26.92
2018-08-16T11:01:22.284Z,26.93
2018-08-16T11:02:22.293Z,26.97
2018-08-16T11:04:15.297Z,26.84
2018-08-16T11:05:15.361Z,26.95
2018-08-16T11:07:08.370Z,27.03
2018-08-16T11:08:08.428Z,27.05
2018-08-16T11:10:01.437Z,27.03
2018-08-16T11:11:01.496Z,27.07
2018-08-16T11:12:54.506Z,27.21
2018-08-16T11:13:54.567Z,27.20
2018-08-16T11:15:47.573Z,27.29
2018-08-16T11:16:47.635Z,27.44
2018-08-16T11:18:40.679Z,27.39
2018-08-16T11:19:40.712Z,27.40
2018-08-16T11:21:33.714Z,27.35
2018-08-16T11:22:33.779Z,27.33
2018-08-16T11:24:26.798Z,27.32
2018-08-16T11:25:26.844Z,27.27
2018-08-16T11:27:19.846Z,27.37
2018-08-16T11:28:19.917Z,27.33
2018-08-16T11:30:12.923Z,27.42
2018-08-16T11:31:12.989Z,27.49
2018-08-16T11:33:05.984Z,27.67
2018-08-16T11:34:06.052Z,27.70
2018-08-16T11:35:59.057Z,27.86
2018-08-16T11:36:59.121Z,27.70
2018-08-16T11:38:52.130Z,27.68
2018-08-16T11:39:52.220Z,27.70
2018-08-16T11:41:45.204Z,27.67
2018-08-16T11:42:45.270Z,27.59
2018-08-16T11:44:38.274Z,27.44
2018-08-16T11:45:38.336Z,27.40
2018-08-16T11:47:31.340Z,27.54
2018-08-16T11:48:31.403Z,27.60
2018-08-16T11:50:24.416Z,27.71
2018-08-16T11:51:24.470Z,27.75
2018-08-16T11:53:17.475Z,27.71
2018-08-16T11:54:17.539Z,27.67
2018-08-16T11:56:10.553Z,27.70
2018-08-16T11:57:10.597Z,27.70
2018-08-16T11:59:03.610Z,27.63
2018-08-16T12:00:03.672Z,27.71
2018-08-16T12:01:56.728Z,27.70
2018-08-16T12:02:56.742Z,27.75
2018-08-16T12:04:49.756Z,27.65
2018-08-16T12:05:49.815Z,27.80
2018-08-16T12:07:42.819Z,27.71
2018-08-16T12:08:42.892Z,27.70
2018-08-16T12:10:35.893Z,27.85
2018-08-16T12:11:35.956Z,27.95
2018-08-16T12:13:28.961Z,28.10
2018-08-16T12:14:29.032Z,28.14
2018-08-16T12:16:22.036Z,28.23
2018-08-16T12:17:22.108Z,28.04
2018-08-16T12:19:15.123Z,27.92
2018-08-16T12:20:15.184Z,27.92
2018-08-16T12:22:08.190Z,28.02
2018-08-16T12:23:08.254Z,28.07
2018-08-16T12:25:01.261Z,27.96
2018-08-16T12:26:01.325Z,27.83
2018-08-16T12:27:54.332Z,27.95
2018-08-16T12:28:54.474Z,27.77
2018-08-16T12:30:47.431Z,27.85
2018-08-16T12:31:47.497Z,27.86
2018-08-16T12:33:40.496Z,27.89
2018-08-16T12:34:40.562Z,27.82
2018-08-16T12:36:33.568Z,27.93
2018-08-16T12:37:33.634Z,27.92
2018-08-16T12:39:26.641Z,27.85
2018-08-16T12:40:26.779Z,27.95
2018-08-16T12:42:19.726Z,28.01
2018-08-16T12:43:19.768Z,28.10
2018-08-16T12:45:12.780Z,28.26
2018-08-16T12:46:12.864Z,28.23
2018-08-16T12:48:05.842Z,28.39
2018-08-16T12:49:05.912Z,28.35
2018-08-16T12:50:58.932Z,28.38
2018-08-16T12:51:58.983Z,28.17
2018-08-16T12:53:51.984Z,28.23
2018-08-16T12:54:52.050Z,28.14
2018-08-16T12:56:45.058Z,28.33
2018-08-16T12:57:45.118Z,28.29
2018-08-16T12:59:38.126Z,28.37
2018-08-16T13:00:38.185Z,28.41
2018-08-16T13:02:31.193Z,28.33
2018-08-16T13:03:31.260Z,28.38
2018-08-16T13:05:24.268Z,28.38
2018-08-16T13:06:24.334Z,28.39
2018-08-16T13:08:17.336Z,28.44
2018-08-16T13:09:17.410Z,28.45
2018-08-16T13:11:10.413Z,28.56
2018-08-16T13:12:10.476Z,28.57
2018-08-16T13:14:03.500Z,28.49
2018-08-16T13:15:03.655Z,28.45
2018-08-16T13:16:56.550Z,28.49
2018-08-16T13:17:56.612Z,28.42
2018-08-16T13:19:49.622Z,28.30
2018-08-16T13:20:49.683Z,28.38
2018-08-16T13:22:42.691Z,28.44
2018-08-16T13:23:42.820Z,28.48
2018-08-16T13:25:35.769Z,28.38
2018-08-16T13:26:35.832Z,28.25
2018-08-16T13:28:28.842Z,28.17
2018-08-16T13:29:28.911Z,28.20
2018-08-16T13:31:22.083Z,28.26
2018-08-16T13:32:21.985Z,28.30
2018-08-16T13:34:14.986Z,28.29
2018-08-16T13:35:15.053Z,28.45
2018-08-16T13:37:08.091Z,28.59
2018-08-16T13:38:08.127Z,28.44
2018-08-16T13:40:01.142Z,28.42
2018-08-16T13:41:01.198Z,28.41
2018-08-16T13:42:54.205Z,28.35
2018-08-16T13:43:54.272Z,28.38
2018-08-16T13:45:47.275Z,28.44
2018-08-16T13:46:47.337Z,28.47
2018-08-16T13:48:40.387Z,28.56
2018-08-16T13:49:40.417Z,28.59
2018-08-16T13:51:33.427Z,28.45
2018-08-16T13:52:33.493Z,28.49
2018-08-16T13:54:26.501Z,28.38
2018-08-16T13:55:26.578Z,28.35
2018-08-16T13:57:19.582Z,28.23
2018-08-16T13:58:19.647Z,28.17
2018-08-16T14:00:12.655Z,28.41
2018-08-16T14:01:12.731Z,28.54
2018-08-16T14:03:05.712Z,28.62
2018-08-16T14:04:05.781Z,28.56
2018-08-16T14:05:58.791Z,28.57
2018-08-16T14:06:58.851Z,28.48
2018-08-16T14:08:51.861Z,28.39
2018-08-16T14:09:51.935Z,28.45
2018-08-16T14:11:44.934Z,28.39
2018-08-16T14:12:45.018Z,28.37
2018-08-16T14:14:37.998Z,28.39
2018-08-16T14:15:38.065Z,28.49
2018-08-16T14:17:31.074Z,28.41
2018-08-16T14:18:31.179Z,28.45
2018-08-16T14:20:24.141Z,28.63
2018-08-16T14:21:24.203Z,28.63
2018-08-16T14:23:17.208Z,28.63
2018-08-16T14:24:17.276Z,28.63
2018-08-16T14:26:10.304Z,28.62
2018-08-16T14:27:10.347Z,28.52
2018-08-16T14:29:03.363Z,28.52
2018-08-16T14:30:03.415Z,28.56
2018-08-16T14:31:56.434Z,28.48
2018-08-16T14:32:56.493Z,28.45
2018-08-16T14:34:49.497Z,28.47
2018-08-16T14:35:49.561Z,28.41
2018-08-16T14:37:42.571Z,28.33
2018-08-16T14:38:42.698Z,28.30
2018-08-16T14:40:35.640Z,28.25
2018-08-16T14:41:35.703Z,28.22
2018-08-16T14:43:28.707Z,28.19
2018-08-16T14:44:28.774Z,28.14
2018-08-16T14:46:21.785Z,28.11
2018-08-16T14:47:21.855Z,28.20
2018-08-16T14:49:16.357Z,28.27
2018-08-16T14:50:16.426Z,28.32
2018-08-16T14:52:09.453Z,28.35
2018-08-16T14:53:09.496Z,28.38
2018-08-16T14:55:02.499Z,28.49
2018-08-16T14:56:02.566Z,28.42
2018-08-16T14:57:55.581Z,28.48
2018-08-16T14:58:55.646Z,28.44
2018-08-16T15:00:48.657Z,28.45
2018-08-16T15:01:48.719Z,28.44
2018-08-16T15:03:41.726Z,28.38
2018-08-16T15:04:41.792Z,28.42
2018-08-16T15:06:34.798Z,28.33
2018-08-16T15:07:34.869Z,28.38
2018-08-16T15:09:27.868Z,28.37
2018-08-16T15:10:27.935Z,28.37
2018-08-16T15:12:20.949Z,28.37
2018-08-16T15:13:21.012Z,28.35
2018-08-16T15:15:14.017Z,28.20
2018-08-16T15:16:14.084Z,28.26
2018-08-16T15:18:07.092Z,28.32
2018-08-16T15:19:07.151Z,28.30
2018-08-16T15:21:00.161Z,28.48
2018-08-16T15:22:00.230Z,28.48
2018-08-16T15:23:53.237Z,28.44
2018-08-16T15:24:53.307Z,28.44
2018-08-16T15:26:46.316Z,28.44
2018-08-16T15:27:46.385Z,28.52
2018-08-16T15:29:39.381Z,28.48
2018-08-16T15:30:39.447Z,28.48
2018-08-16T15:32:32.460Z,28.35
2018-08-16T15:33:32.522Z,28.37
2018-08-16T15:35:25.530Z,28.33
2018-08-16T15:36:25.601Z,28.30
2018-08-16T15:38:18.748Z,28.26
2018-08-16T15:39:18.782Z,28.25
2018-08-16T15:41:11.948Z,28.26
2018-08-16T15:42:11.865Z,28.22
2018-08-16T15:44:04.859Z,28.12
2018-08-16T15:45:04.931Z,28.20
2018-08-16T15:46:57.951Z,28.14
2018-08-16T15:47:58.018Z,28.19
2018-08-16T15:49:51.531Z,28.08
2018-08-16T15:50:51.593Z,28.11
2018-08-16T15:52:44.610Z,28.10
2018-08-16T15:53:44.665Z,28.14
2018-08-16T15:55:37.675Z,28.08
2018-08-16T15:56:37.742Z,28.10
2018-08-16T15:58:30.755Z,28.12
2018-08-16T15:59:30.817Z,28.19
2018-08-16T16:01:23.827Z,28.23
2018-08-16T16:02:23.891Z,28.19
2018-08-16T16:04:16.897Z,28.22
2018-08-16T16:05:16.962Z,28.26
2018-08-16T16:07:09.967Z,28.14
2018-08-16T16:08:10.033Z,28.12
2018-08-16T16:10:03.045Z,28.08
2018-08-16T16:11:03.108Z,28.19
2018-08-16T16:12:56.116Z,28.17
2018-08-16T16:13:56.178Z,28.17
2018-08-16T16:15:49.182Z,28.19
2018-08-16T16:16:49.247Z,28.23
2018-08-16T16:18:42.265Z,28.14
2018-08-16T16:19:42.316Z,28.12
2018-08-16T16:21:35.447Z,28.02
2018-08-16T16:22:35.386Z,28.05
2018-08-16T16:24:28.396Z,28.07
2018-08-16T16:25:28.461Z,28.04
2018-08-16T16:27:21.476Z,27.92
2018-08-16T16:28:21.538Z,27.90
2018-08-16T16:30:14.559Z,27.89
2018-08-16T16:31:14.615Z,27.87
2018-08-16T16:33:08.488Z,27.80
2018-08-16T16:34:08.549Z,27.83
2018-08-16T16:36:01.571Z,27.80
2018-08-16T16:37:01.637Z,27.80
2018-08-16T16:38:54.635Z,27.75
2018-08-16T16:39:54.709Z,27.68
2018-08-16T16:41:47.697Z,27.60
2018-08-16T16:42:47.759Z,27.68
2018-08-16T16:44:40.793Z,27.73
2018-08-16T16:45:40.826Z,27.63
2018-08-16T16:47:33.835Z,27.54
2018-08-16T16:48:33.894Z,27.51
2018-08-16T16:50:26.893Z,27.45
2018-08-16T16:51:26.975Z,27.49
2018-08-16T16:53:19.990Z,27.39
2018-08-16T16:54:20.060Z,27.40
2018-08-16T16:56:13.140Z,27.30
2018-08-16T16:57:13.139Z,27.37
2018-08-16T16:59:06.150Z,27.21
2018-08-16T17:00:06.232Z,27.29
2018-08-16T17:01:59.228Z,27.22
2018-08-16T17:02:59.280Z,27.18
2018-08-16T17:04:52.295Z,27.12
2018-08-16T17:05:52.355Z,27.10
2018-08-16T17:07:45.379Z,27.02
2018-08-16T17:08:45.429Z,26.90
2018-08-16T17:10:38.439Z,26.88
2018-08-16T17:11:38.499Z,26.84
2018-08-16T17:13:31.509Z,26.80
2018-08-16T17:14:31.576Z,26.77
2018-08-16T17:16:24.580Z,26.59
2018-08-16T17:17:24.664Z,26.65
2018-08-16T17:19:17.669Z,26.58
2018-08-16T17:20:17.732Z,26.52
2018-08-16T17:22:10.743Z,26.51
2018-08-16T17:23:10.799Z,26.40
2018-08-16T17:25:03.805Z,26.31
2018-08-16T17:26:03.938Z,26.33
2018-08-16T17:27:56.881Z,26.29
2018-08-16T17:28:56.944Z,26.18
2018-08-16T17:30:49.953Z,26.19
2018-08-16T17:31:50.012Z,26.23
2018-08-16T17:33:43.028Z,26.06
2018-08-16T17:34:43.083Z,26.06
2018-08-16T17:36:36.129Z,26.05
2018-08-16T17:37:36.156Z,26.00
2018-08-16T17:39:29.165Z,25.93
2018-08-16T17:40:29.223Z,25.96
2018-08-16T17:42:22.250Z,25.87
2018-08-16T17:43:22.295Z,25.88
2018-08-16T17:45:15.303Z,25.75
2018-08-16T17:46:15.366Z,25.78
2018-08-16T17:48:08.384Z,25.80
2018-08-16T17:49:08.442Z,25.68
2018-08-16T17:51:01.455Z,25.68
2018-08-16T17:52:01.544Z,25.65
2018-08-16T17:53:54.567Z,25.65
2018-08-16T17:54:54.606Z,25.65
2018-08-16T17:56:47.608Z,25.65
2018-08-16T17:57:47.675Z,25.63
2018-08-16T17:59:40.696Z,25.58
2018-08-16T18:00:40.767Z,25.60
2018-08-16T18:02:33.773Z,25.51
2018-08-16T18:03:33.815Z,25.43
2018-08-16T18:05:26.819Z,25.43
2018-08-16T18:06:26.893Z,25.38
2018-08-16T18:08:19.901Z,25.31
2018-08-16T18:09:19.979Z,25.31
2018-08-16T18:11:12.971Z,25.32
2018-08-16T18:12:13.038Z,25.23
2018-08-16T18:14:06.042Z,25.22
2018-08-16T18:15:06.103Z,25.18
2018-08-16T18:16:59.099Z,25.13
2018-08-16T18:17:59.216Z,25.04
2018-08-16T18:19:52.187Z,25.10
2018-08-16T18:20:52.272Z,25.03
2018-08-16T18:22:45.250Z,25.03
2018-08-16T18:23:45.308Z,24.92
2018-08-16T18:25:38.318Z,24.91
2018-08-16T18:26:38.382Z,24.81
2018-08-16T18:28:32.492Z,24.80
2018-08-16T18:29:32.452Z,24.77
2018-08-16T18:31:26.974Z,24.70
2018-08-16T18:32:27.038Z,24.73
2018-08-16T18:34:20.050Z,24.63